ADDS TAF Data INFO
IDs: Format: Raw Decoded Include METARs

Data at: 2024 UTC 22 Apr 2018

KRIC 221720Z 2218/2318 16007KT P6SM FEW050 BKN250
  FM222300 12005KT P6SM BKN250
  FM231600 11010KT P6SM BKN150